createdAt,value
2019-06-08T00:05:02.956Z,16.60
2019-06-08T00:10:09.105Z,16.60
2019-06-08T00:15:14.537Z,16.70
2019-06-08T00:20:20.048Z,16.60
2019-06-08T00:25:25.563Z,16.60
2019-06-08T00:30:31.007Z,16.50
2019-06-08T00:35:36.520Z,16.50
2019-06-08T00:40:42.011Z,16.50
2019-06-08T00:45:47.501Z,16.40
2019-06-08T00:50:52.931Z,16.30
2019-06-08T00:55:58.411Z,16.20
2019-06-08T01:01:03.881Z,16.10
2019-06-08T01:06:09.359Z,16.10
2019-06-08T01:11:14.929Z,16.10
2019-06-08T01:16:20.962Z,16.00
2019-06-08T01:21:27.681Z,15.90
2019-06-08T01:26:33.316Z,15.80
2019-06-08T01:31:38.864Z,15.80
2019-06-08T01:36:44.406Z,15.80
2019-06-08T01:41:49.886Z,15.70
2019-06-08T01:46:55.345Z,15.70
2019-06-08T01:52:00.820Z,15.80
2019-06-08T01:57:06.395Z,15.80
2019-06-08T02:02:11.831Z,15.90
2019-06-08T02:07:17.393Z,15.90
2019-06-08T02:12:22.950Z,16.00
2019-06-08T02:17:29.379Z,16.00
2019-06-08T02:22:35.178Z,16.00
2019-06-08T02:27:40.832Z,16.00
2019-06-08T02:32:46.268Z,16.00
2019-06-08T02:37:51.674Z,16.00
2019-06-08T02:42:57.174Z,16.00
2019-06-08T02:48:02.649Z,15.90
2019-06-08T02:53:08.134Z,15.90
2019-06-08T02:58:13.587Z,15.90
2019-06-08T03:03:19.254Z,15.90
2019-06-08T03:08:24.738Z,15.90
2019-06-08T03:13:31.208Z,15.90
2019-06-08T03:18:38.203Z,15.80
2019-06-08T03:23:44.346Z,15.80
2019-06-08T03:28:49.816Z,15.70
2019-06-08T03:33:56.625Z,15.70
2019-06-08T03:39:02.390Z,15.70
2019-06-08T03:44:07.915Z,15.70
2019-06-08T03:49:13.354Z,15.70
2019-06-08T03:54:18.842Z,15.60
2019-06-08T03:59:24.301Z,15.60
2019-06-08T04:04:29.742Z,15.60
2019-06-08T04:09:35.161Z,15.60
2019-06-08T04:14:42.189Z,15.60
2019-06-08T04:20:06.393Z,15.70
2019-06-08T04:24:54.984Z,15.70
2019-06-08T04:30:00.422Z,15.60
2019-06-08T04:35:05.986Z,15.60
2019-06-08T04:40:11.471Z,15.60
2019-06-08T04:45:16.904Z,15.60
2019-06-08T04:50:24.028Z,15.60
2019-06-08T04:55:29.520Z,15.60
2019-06-08T05:00:34.992Z,15.70
2019-06-08T05:05:41.047Z,15.80
2019-06-08T05:10:47.416Z,15.70
2019-06-08T05:15:53.059Z,15.80
2019-06-08T05:20:58.510Z,16.00
2019-06-08T05:26:03.958Z,16.30
2019-06-08T05:31:09.424Z,16.50
2019-06-08T05:36:14.892Z,16.50
2019-06-08T05:41:23.366Z,16.70
2019-06-08T05:46:29.219Z,17.00
2019-06-08T05:51:34.681Z,16.90
2019-06-08T05:56:40.202Z,16.80
2019-06-08T06:01:46.761Z,16.80
2019-06-08T06:06:52.361Z,16.90
2019-06-08T06:11:57.844Z,17.00
2019-06-08T06:17:03.314Z,17.10
2019-06-08T06:22:08.733Z,17.00
2019-06-08T06:27:14.229Z,16.90
2019-06-08T06:32:19.759Z,16.80
2019-06-08T06:37:25.266Z,16.80
2019-06-08T06:42:30.757Z,17.00
2019-06-08T06:47:36.214Z,17.30
2019-06-08T06:52:42.768Z,17.70
2019-06-08T06:57:49.251Z,18.10
2019-06-08T07:02:54.814Z,18.00
2019-06-08T07:08:00.275Z,17.90
2019-06-08T07:13:05.743Z,18.00
2019-06-08T07:18:11.218Z,18.00
2019-06-08T07:23:16.702Z,17.80
2019-06-08T07:28:22.532Z,18.10
2019-06-08T07:33:27.966Z,18.50
2019-06-08T07:38:33.392Z,19.20
2019-06-08T07:43:38.842Z,19.80
2019-06-08T07:48:44.320Z,20.30
2019-06-08T07:53:50.375Z,20.10
2019-06-08T07:58:57.317Z,19.70
2019-06-08T08:04:02.889Z,19.40
2019-06-08T08:09:09.116Z,19.20
2019-06-08T08:14:14.718Z,19.20
2019-06-08T08:19:20.297Z,19.20
2019-06-08T08:24:27.178Z,19.30
2019-06-08T08:29:32.957Z,19.30
2019-06-08T08:34:38.401Z,19.10
2019-06-08T08:39:43.868Z,19.00
2019-06-08T08:44:51.010Z,18.80
2019-06-08T08:49:58.723Z,18.50
2019-06-08T08:55:04.033Z,18.20
2019-06-08T09:00:09.591Z,17.90
2019-06-08T09:05:15.061Z,17.70
2019-06-08T09:10:20.684Z,17.70
2019-06-08T09:15:28.774Z,18.20
2019-06-08T09:20:33.446Z,22.30
2019-06-08T09:25:40.687Z,25.10
2019-06-08T09:30:48.223Z,25.10
2019-06-08T09:35:54.726Z,25.10
2019-06-08T09:41:03.390Z,24.50
2019-06-08T09:46:09.155Z,23.80
2019-06-08T09:51:14.727Z,22.70
2019-06-08T09:56:20.230Z,21.70
2019-06-08T10:01:25.675Z,20.90
2019-06-08T10:06:31.095Z,20.50
2019-06-08T10:11:37.991Z,20.50
2019-06-08T10:16:43.613Z,20.60
2019-06-08T10:21:49.063Z,21.50
2019-06-08T10:26:55.150Z,22.40
2019-06-08T10:32:01.573Z,22.70
2019-06-08T10:37:12.710Z,22.50
2019-06-08T10:42:14.317Z,22.50
2019-06-08T10:47:19.760Z,22.50
2019-06-08T10:52:27.984Z,22.70
2019-06-08T10:57:32.551Z,22.50
2019-06-08T11:02:40.623Z,22.60
2019-06-08T11:07:47.880Z,23.00
2019-06-08T11:12:52.564Z,23.40
2019-06-08T11:18:01.696Z,23.40
2019-06-08T11:23:05.676Z,23.60
2019-06-08T11:28:14.837Z,23.60
2019-06-08T11:33:18.817Z,23.50
2019-06-08T11:38:24.273Z,23.50
2019-06-08T11:43:29.789Z,23.40
2019-06-08T11:48:39.207Z,23.20
2019-06-08T11:53:42.604Z,23.10
2019-06-08T11:58:48.562Z,23.00
2019-06-08T12:03:54.232Z,23.10
2019-06-08T12:09:00.289Z,23.20
2019-06-08T12:14:08.113Z,23.10
2019-06-08T12:19:16.846Z,23.10
2019-06-08T12:24:20.587Z,23.40
2019-06-08T12:29:28.220Z,23.60
2019-06-08T12:34:33.350Z,23.60
2019-06-08T12:39:39.345Z,23.80
2019-06-08T12:44:44.819Z,23.60
2019-06-08T12:49:50.279Z,23.30
2019-06-08T12:55:03.505Z,23.10
2019-06-08T13:00:03.042Z,23.10
2019-06-08T13:05:12.522Z,23.20
2019-06-08T13:10:15.734Z,23.30
2019-06-08T13:15:21.954Z,23.30
2019-06-08T13:20:28.353Z,23.40
2019-06-08T13:25:40.197Z,23.50
2019-06-08T13:30:41.155Z,23.40
2019-06-08T13:35:48.050Z,23.40
2019-06-08T13:40:53.564Z,23.30
2019-06-08T13:45:59.018Z,23.00
2019-06-08T13:51:04.545Z,23.10
2019-06-08T13:56:10.111Z,23.00
2019-06-08T14:01:15.593Z,23.20
2019-06-08T14:06:22.192Z,23.20
2019-06-08T14:11:28.613Z,23.20
2019-06-08T14:16:34.271Z,23.20
2019-06-08T14:21:41.719Z,23.30
2019-06-08T14:26:48.590Z,23.20
2019-06-08T14:31:54.359Z,23.00
2019-06-08T14:36:59.924Z,23.00
2019-06-08T14:42:05.364Z,22.80
2019-06-08T14:47:16.887Z,22.40
2019-06-08T14:52:24.166Z,22.20
2019-06-08T14:57:30.898Z,22.60
2019-06-08T15:02:37.945Z,22.70
2019-06-08T15:07:43.674Z,22.80
2019-06-08T15:12:49.232Z,23.10
2019-06-08T15:17:54.806Z,23.00
2019-06-08T15:23:00.224Z,22.70
2019-06-08T15:28:08.022Z,22.40
2019-06-08T15:33:13.098Z,22.10
2019-06-08T15:38:20.854Z,22.10
2019-06-08T15:43:29.168Z,22.20
2019-06-08T15:48:34.252Z,22.10
2019-06-08T15:53:40.408Z,21.90
2019-06-08T15:58:48.523Z,22.00
2019-06-08T16:03:53.208Z,22.10
2019-06-08T16:08:58.640Z,22.40
2019-06-08T16:14:04.113Z,22.40
2019-06-08T16:19:09.625Z,22.10
2019-06-08T16:24:15.269Z,21.80
2019-06-08T16:29:20.869Z,21.80
2019-06-08T16:34:27.300Z,21.80
2019-06-08T16:39:32.896Z,21.80
2019-06-08T16:44:38.658Z,21.70
2019-06-08T16:49:44.209Z,21.50
2019-06-08T16:54:49.724Z,21.20
2019-06-08T16:59:55.182Z,21.00
2019-06-08T17:05:00.703Z,20.90
2019-06-08T17:10:06.334Z,20.90
2019-06-08T17:15:11.771Z,20.90
2019-06-08T17:20:17.234Z,20.70
2019-06-08T17:25:22.700Z,20.30
2019-06-08T17:30:28.152Z,19.60
2019-06-08T17:35:35.520Z,19.30
2019-06-08T17:40:42.265Z,19.40
2019-06-08T17:45:48.131Z,19.50
2019-06-08T17:50:53.604Z,19.70
2019-06-08T17:55:59.088Z,19.80
2019-06-08T18:01:04.574Z,19.70
2019-06-08T18:06:10.045Z,19.30
2019-06-08T18:11:17.370Z,18.90
2019-06-08T18:16:22.715Z,18.60
2019-06-08T18:21:28.361Z,18.40
2019-06-08T18:26:34.358Z,18.20
2019-06-08T18:31:42.491Z,18.20
2019-06-08T18:36:47.934Z,18.10
2019-06-08T18:41:53.557Z,18.10
2019-06-08T18:46:59.164Z,18.00
2019-06-08T18:52:04.594Z,17.90
2019-06-08T18:57:11.384Z,17.90
2019-06-08T19:02:18.018Z,17.80
2019-06-08T19:07:23.525Z,17.60
2019-06-08T19:12:28.994Z,17.50
2019-06-08T19:17:34.463Z,17.50
2019-06-08T19:22:43.802Z,17.40
2019-06-08T19:27:52.989Z,17.40
2019-06-08T19:32:54.615Z,17.40
2019-06-08T19:38:00.054Z,17.30
2019-06-08T19:43:07.566Z,17.10
2019-06-08T19:48:12.805Z,16.90
2019-06-08T19:53:18.439Z,16.70
2019-06-08T19:58:23.848Z,16.60
2019-06-08T20:03:29.372Z,16.30
2019-06-08T20:08:34.856Z,16.10
2019-06-08T20:13:41.211Z,15.90
2019-06-08T20:18:48.651Z,15.70
2019-06-08T20:23:53.906Z,15.50
2019-06-08T20:29:12.191Z,15.40
2019-06-08T20:34:07.038Z,15.30
2019-06-08T20:39:12.637Z,15.20
2019-06-08T20:44:18.191Z,15.20
2019-06-08T20:49:23.624Z,15.10
2019-06-08T20:54:29.123Z,15.10
2019-06-08T20:59:34.572Z,14.90
2019-06-08T21:04:40.111Z,14.80
2019-06-08T21:09:49.602Z,14.80
2019-06-08T21:14:55.417Z,14.70
2019-06-08T21:20:01.027Z,14.60
2019-06-08T21:25:08.649Z,14.50
2019-06-08T21:30:21.605Z,14.40
2019-06-08T21:35:21.066Z,14.30
2019-06-08T21:40:28.111Z,14.20
2019-06-08T21:45:33.804Z,14.20
2019-06-08T21:50:39.269Z,14.00
2019-06-08T21:55:44.779Z,14.00
2019-06-08T22:00:51.062Z,13.90
2019-06-08T22:05:58.904Z,13.80
2019-06-08T22:11:03.910Z,13.80
2019-06-08T22:16:09.345Z,13.70
2019-06-08T22:21:17.911Z,13.70
2019-06-08T22:26:21.988Z,13.60
2019-06-08T22:31:27.760Z,13.60
2019-06-08T22:36:33.674Z,13.50
2019-06-08T22:41:39.250Z,13.50
2019-06-08T22:46:44.717Z,13.40
2019-06-08T22:51:50.125Z,13.40
2019-06-08T22:56:55.611Z,13.30
2019-06-08T23:02:04.096Z,13.30
2019-06-08T23:07:10.790Z,13.20
2019-06-08T23:12:18.040Z,13.20
2019-06-08T23:17:22.702Z,13.20
2019-06-08T23:22:28.259Z,13.10
2019-06-08T23:27:33.761Z,13.10
2019-06-08T23:32:39.272Z,13.10
2019-06-08T23:37:44.721Z,13.10
2019-06-08T23:42:50.184Z,13.10
2019-06-08T23:47:58.350Z,13.10
2019-06-08T23:53:02.881Z,13.10
2019-06-08T23:58:11.190Z,13.00
